sensor_id;sensor_type;location;lat;lon;timestamp;pressure;altitude;pressure_sealevel;temperature;humidity
61035;BME280;46916;40.564;-7.958;2023-11-19T00:01:26;98099.00;;;15.52;100.00
61035;BME280;46916;40.564;-7.958;2023-11-19T00:03:27;98107.03;;;15.51;100.00
61035;BME280;46916;40.564;-7.958;2023-11-19T00:05:28;98098.44;;;15.49;100.00
61035;BME280;46916;40.564;-7.958;2023-11-19T00:07:29;98100.38;;;15.47;100.00
61035;BME280;46916;40.564;-7.958;2023-11-19T00:09:30;98109.16;;;15.47;100.00
61035;BME280;46916;40.564;-7.958;2023-11-19T00:11:30;98106.53;;;15.47;100.00
61035;BME280;46916;40.564;-7.958;2023-11-19T00:13:31;98094.44;;;15.45;100.00
61035;BME280;46916;40.564;-7.958;2023-11-19T00:15:31;98098.72;;;15.46;100.00
61035;BME280;46916;40.564;-7.958;2023-11-19T00:17:32;98111.25;;;15.44;100.00
61035;BME280;46916;40.564;-7.958;2023-11-19T00:19:33;98108.47;;;15.45;100.00
61035;BME280;46916;40.564;-7.958;2023-11-19T00:21:33;98101.53;;;15.44;100.00
61035;BME280;46916;40.564;-7.958;2023-11-19T00:23:34;98098.88;;;15.44;100.00
61035;BME280;46916;40.564;-7.958;2023-11-19T00:25:35;98103.88;;;15.47;100.00
61035;BME280;46916;40.564;-7.958;2023-11-19T00:27:36;98096.78;;;15.48;100.00
61035;BME280;46916;40.564;-7.958;2023-11-19T00:29:38;98102.75;;;15.50;100.00
61035;BME280;46916;40.564;-7.958;2023-11-19T00:31:39;98102.75;;;15.50;100.00
61035;BME280;46916;40.564;-7.958;2023-11-19T00:33:39;98103.72;;;15.49;100.00
61035;BME280;46916;40.564;-7.958;2023-11-19T00:35:40;98100.53;;;15.45;100.00
61035;BME280;46916;40.564;-7.958;2023-11-19T00:37:41;98098.06;;;15.44;100.00
61035;BME280;46916;40.564;-7.958;2023-11-19T00:39:43;98107.09;;;15.41;100.00
61035;BME280;46916;40.564;-7.958;2023-11-19T00:41:44;98099.16;;;15.41;100.00
61035;BME280;46916;40.564;-7.958;2023-11-19T00:43:46;98099.16;;;15.41;100.00
61035;BME280;46916;40.564;-7.958;2023-11-19T00:45:47;98099.88;;;15.43;100.00
61035;BME280;46916;40.564;-7.958;2023-11-19T00:47:50;98085.16;;;15.41;100.00
61035;BME280;46916;40.564;-7.958;2023-11-19T00:49:51;98089.31;;;15.43;100.00
61035;BME280;46916;40.564;-7.958;2023-11-19T00:51:52;98087.63;;;15.42;100.00
61035;BME280;46916;40.564;-7.958;2023-11-19T00:53:53;98080.41;;;15.44;100.00
61035;BME280;46916;40.564;-7.958;2023-11-19T00:55:53;98088.34;;;15.44;100.00
61035;BME280;46916;40.564;-7.958;2023-11-19T00:57:54;98085.00;;;15.42;100.00
61035;BME280;46916;40.564;-7.958;2023-11-19T00:59:56;98092.06;;;15.42;100.00
61035;BME280;46916;40.564;-7.958;2023-11-19T01:01:57;98085.31;;;15.39;100.00
61035;BME280;46916;40.564;-7.958;2023-11-19T01:03:58;98090.56;;;15.39;100.00
61035;BME280;46916;40.564;-7.958;2023-11-19T01:05:59;98086.25;;;15.38;100.00
61035;BME280;46916;40.564;-7.958;2023-11-19T01:08:01;98086.97;;;15.40;100.00
61035;BME280;46916;40.564;-7.958;2023-11-19T01:10:05;98084.31;;;15.40;100.00
61035;BME280;46916;40.564;-7.958;2023-11-19T01:12:06;98080.03;;;15.39;100.00
61035;BME280;46916;40.564;-7.958;2023-11-19T01:14:07;98075.69;;;15.38;100.00
61035;BME280;46916;40.564;-7.958;2023-11-19T01:16:08;98075.69;;;15.38;100.00
61035;BME280;46916;40.564;-7.958;2023-11-19T01:18:10;98082.94;;;15.36;100.00
61035;BME280;46916;40.564;-7.958;2023-11-19T01:20:11;98078.50;;;15.36;100.00
61035;BME280;46916;40.564;-7.958;2023-11-19T01:22:13;98076.97;;;15.34;100.00
61035;BME280;46916;40.564;-7.958;2023-11-19T01:24:14;98080.72;;;15.31;100.00
61035;BME280;46916;40.564;-7.958;2023-11-19T01:26:14;98078.22;;;15.30;100.00
61035;BME280;46916;40.564;-7.958;2023-11-19T01:28:15;98072.00;;;15.31;100.00
61035;BME280;46916;40.564;-7.958;2023-11-19T01:30:17;98079.75;;;15.32;100.00
61035;BME280;46916;40.564;-7.958;2023-11-19T01:32:17;98084.19;;;15.32;100.00
61035;BME280;46916;40.564;-7.958;2023-11-19T01:34:18;98078.09;;;15.31;100.00
61035;BME280;46916;40.564;-7.958;2023-11-19T01:36:19;98079.06;;;15.30;100.00
61035;BME280;46916;40.564;-7.958;2023-11-19T01:38:21;98079.47;;;15.26;100.00
61035;BME280;46916;40.564;-7.958;2023-11-19T01:40:21;98084.75;;;15.26;100.00
61035;BME280;46916;40.564;-7.958;2023-11-19T01:42:22;98085.06;;;15.23;100.00
61035;BME280;46916;40.564;-7.958;2023-11-19T01:44:25;98088.53;;;15.23;100.00
61035;BME280;46916;40.564;-7.958;2023-11-19T01:46:26;98077.00;;;15.24;100.00
61035;BME280;46916;40.564;-7.958;2023-11-19T01:48:27;98081.44;;;15.24;100.00
61035;BME280;46916;40.564;-7.958;2023-11-19T01:50:28;98076.16;;;15.24;100.00
61035;BME280;46916;40.564;-7.958;2023-11-19T01:52:29;98077.44;;;15.20;100.00
61035;BME280;46916;40.564;-7.958;2023-11-19T01:54:30;98083.38;;;15.22;100.00
61035;BME280;46916;40.564;-7.958;2023-11-19T01:56:31;98075.78;;;15.19;100.00
61035;BME280;46916;40.564;-7.958;2023-11-19T01:58:32;98073.81;;;15.21;100.00
61035;BME280;46916;40.564;-7.958;2023-11-19T02:00:33;98068.81;;;15.18;100.00
61035;BME280;46916;40.564;-7.958;2023-11-19T02:02:34;98079.09;;;15.21;100.00
61035;BME280;46916;40.564;-7.958;2023-11-19T02:04:35;98077.28;;;15.21;100.00
61035;BME280;46916;40.564;-7.958;2023-11-19T02:06:37;98077.44;;;15.20;100.00
61035;BME280;46916;40.564;-7.958;2023-11-19T02:08:41;98076.44;;;15.21;100.00
61035;BME280;46916;40.564;-7.958;2023-11-19T02:10:42;98070.19;;;15.22;100.00
61035;BME280;46916;40.564;-7.958;2023-11-19T02:12:43;98067.56;;;15.22;100.00
61035;BME280;46916;40.564;-7.958;2023-11-19T02:14:44;98068.38;;;15.22;100.00
61035;BME280;46916;40.564;-7.958;2023-11-19T02:16:45;98071.88;;;15.23;100.00
61035;BME280;46916;40.564;-7.958;2023-11-19T02:18:45;98060.47;;;15.22;100.00
61035;BME280;46916;40.564;-7.958;2023-11-19T02:20:46;98069.25;;;15.23;100.00
61035;BME280;46916;40.564;-7.958;2023-11-19T02:22:47;98064.91;;;15.22;100.00
61035;BME280;46916;40.564;-7.958;2023-11-19T02:24:51;98069.38;;;15.21;100.00
61035;BME280;46916;40.564;-7.958;2023-11-19T02:27:10;98069.38;;;15.21;100.00
61035;BME280;46916;40.564;-7.958;2023-11-19T02:29:14;98062.59;;;15.19;100.00
61035;BME280;46916;40.564;-7.958;2023-11-19T02:31:15;98065.50;;;15.16;100.00
61035;BME280;46916;40.564;-7.958;2023-11-19T02:33:15;98063.84;;;15.15;100.00
61035;BME280;46916;40.564;-7.958;2023-11-19T02:35:16;98074.41;;;15.15;100.00
61035;BME280;46916;40.564;-7.958;2023-11-19T02:37:17;98064.94;;;15.12;100.00
61035;BME280;46916;40.564;-7.958;2023-11-19T02:39:19;98069.41;;;15.11;100.00
61035;BME280;46916;40.564;-7.958;2023-11-19T02:41:21;98069.41;;;15.11;100.00
61035;BME280;46916;40.564;-7.958;2023-11-19T02:43:22;98067.75;;;15.10;100.00
61035;BME280;46916;40.564;-7.958;2023-11-19T02:45:23;98060.78;;;15.09;100.00
61035;BME280;46916;40.564;-7.958;2023-11-19T02:47:24;98065.66;;;15.04;100.00
61035;BME280;46916;40.564;-7.958;2023-11-19T02:49:25;98066.63;;;15.03;100.00
61035;BME280;46916;40.564;-7.958;2023-11-19T02:51:25;98058.03;;;15.01;100.00
61035;BME280;46916;40.564;-7.958;2023-11-19T02:53:28;98059.00;;;15.00;100.00
61035;BME280;46916;40.564;-7.958;2023-11-19T02:55:29;98063.03;;;15.04;100.00
61035;BME280;46916;40.564;-7.958;2023-11-19T02:57:34;98065.81;;;15.03;100.00
61035;BME280;46916;40.564;-7.958;2023-11-19T02:59:38;98065.81;;;15.03;100.00
61035;BME280;46916;40.564;-7.958;2023-11-19T03:01:40;98063.03;;;15.04;100.00
61035;BME280;46916;40.564;-7.958;2023-11-19T03:03:44;98057.75;;;15.04;100.00
61035;BME280;46916;40.564;-7.958;2023-11-19T03:05:46;98060.66;;;15.01;100.00
61035;BME280;46916;40.564;-7.958;2023-11-19T03:07:47;98057.34;;;14.99;100.00
61035;BME280;46916;40.564;-7.958;2023-11-19T03:09:48;98061.78;;;14.99;100.00
61035;BME280;46916;40.564;-7.958;2023-11-19T03:11:50;98050.69;;;14.95;100.00
61035;BME280;46916;40.564;-7.958;2023-11-19T03:13:50;98055.81;;;14.97;100.00
61035;BME280;46916;40.564;-7.958;2023-11-19T03:15:52;98048.06;;;14.95;100.00
61035;BME280;46916;40.564;-7.958;2023-11-19T03:17:54;98059.28;;;14.97;100.00
61035;BME280;46916;40.564;-7.958;2023-11-19T03:19:54;98053.19;;;14.97;100.00
61035;BME280;46916;40.564;-7.958;2023-11-19T03:21:55;98046.25;;;14.96;100.00
61035;BME280;46916;40.564;-7.958;2023-11-19T03:23:55;98048.88;;;14.96;100.00
61035;BME280;46916;40.564;-7.958;2023-11-19T03:25:56;98051.53;;;14.96;100.00
61035;BME280;46916;40.564;-7.958;2023-11-19T03:27:57;98043.75;;;14.94;100.00
61035;BME280;46916;40.564;-7.958;2023-11-19T03:29:58;98049.03;;;14.94;100.00
61035;BME280;46916;40.564;-7.958;2023-11-19T03:31:59;98040.25;;;14.94;100.00
61035;BME280;46916;40.564;-7.958;2023-11-19T03:34:00;98041.13;;;14.94;100.00
61035;BME280;46916;40.564;-7.958;2023-11-19T03:36:00;98033.88;;;14.96;100.00
61035;BME280;46916;40.564;-7.958;2023-11-19T03:38:03;98038.19;;;14.97;100.00
61035;BME280;46916;40.564;-7.958;2023-11-19T03:40:04;98037.34;;;14.97;100.00
61035;BME280;46916;40.564;-7.958;2023-11-19T03:42:05;98034.88;;;14.95;100.00
61035;BME280;46916;40.564;-7.958;2023-11-19T03:44:05;98041.13;;;14.94;100.00
61035;BME280;46916;40.564;-7.958;2023-11-19T03:46:17;98035.84;;;14.94;100.00
61035;BME280;46916;40.564;-7.958;2023-11-19T03:48:18;98027.50;;;14.89;100.00
61035;BME280;46916;40.564;-7.958;2023-11-19T03:50:19;98036.13;;;14.91;100.00
61035;BME280;46916;40.564;-7.958;2023-11-19T03:52:23;98029.19;;;14.90;100.00
61035;BME280;46916;40.564;-7.958;2023-11-19T03:54:24;98024.03;;;14.89;100.00
61035;BME280;46916;40.564;-7.958;2023-11-19T03:56:24;98035.56;;;14.88;100.00
61035;BME280;46916;40.564;-7.958;2023-11-19T03:58:25;98036.41;;;14.88;100.00
61035;BME280;46916;40.564;-7.958;2023-11-19T04:00:25;98022.53;;;14.86;100.00
61035;BME280;46916;40.564;-7.958;2023-11-19T04:02:28;98022.53;;;14.86;100.00
61035;BME280;46916;40.564;-7.958;2023-11-19T04:04:28;98023.66;;;14.83;100.00
61035;BME280;46916;40.564;-7.958;2023-11-19T04:06:29;98028.09;;;14.83;100.00
61035;BME280;46916;40.564;-7.958;2023-11-19T04:08:30;98021.16;;;14.82;100.00
61035;BME280;46916;40.564;-7.958;2023-11-19T04:10:31;98018.66;;;14.80;100.00
61035;BME280;46916;40.564;-7.958;2023-11-19T04:12:31;98017.81;;;14.80;100.00
61035;BME280;46916;40.564;-7.958;2023-11-19T04:14:32;98017.16;;;14.78;100.00
61035;BME280;46916;40.564;-7.958;2023-11-19T04:16:33;98015.34;;;14.78;100.00
61035;BME280;46916;40.564;-7.958;2023-11-19T04:18:33;98003.97;;;14.78;100.00
61035;BME280;46916;40.564;-7.958;2023-11-19T04:20:34;98010.19;;;14.77;100.00
61035;BME280;46916;40.564;-7.958;2023-11-19T04:22:35;98014.50;;;14.78;100.00
61035;BME280;46916;40.564;-7.958;2023-11-19T04:24:36;98010.06;;;14.78;100.00
61035;BME280;46916;40.564;-7.958;2023-11-19T04:26:43;98013.66;;;14.77;100.00
61035;BME280;46916;40.564;-7.958;2023-11-19T04:28:45;98008.53;;;14.76;100.00
61035;BME280;46916;40.564;-7.958;2023-11-19T04:30:46;98012.28;;;14.73;100.00
61035;BME280;46916;40.564;-7.958;2023-11-19T04:32:46;98008.13;;;14.71;100.00
61035;BME280;46916;40.564;-7.958;2023-11-19T04:34:50;98012.56;;;14.70;100.00
61035;BME280;46916;40.564;-7.958;2023-11-19T04:36:51;98009.13;;;14.70;100.00
61035;BME280;46916;40.564;-7.958;2023-11-19T04:38:52;98004.50;;;14.72;100.00
61035;BME280;46916;40.564;-7.958;2023-11-19T04:40:52;98006.16;;;14.73;100.00
61035;BME280;46916;40.564;-7.958;2023-11-19T04:42:53;98001.88;;;14.72;100.00
61035;BME280;46916;40.564;-7.958;2023-11-19T04:44:53;98008.81;;;14.73;100.00
61035;BME280;46916;40.564;-7.958;2023-11-19T04:46:54;98000.91;;;14.73;100.00
61035;BME280;46916;40.564;-7.958;2023-11-19T04:48:55;98001.88;;;14.72;100.00
61035;BME280;46916;40.564;-7.958;2023-11-19T04:50:55;98002.03;;;14.70;100.00
61035;BME280;46916;40.564;-7.958;2023-11-19T04:52:56;98009.94;;;14.70;100.00
61035;BME280;46916;40.564;-7.958;2023-11-19T04:54:57;98012.69;;;14.69;100.00
61035;BME280;46916;40.564;-7.958;2023-11-19T04:56:57;98005.09;;;14.66;100.00
61035;BME280;46916;40.564;-7.958;2023-11-19T04:58:58;98006.34;;;14.61;100.00
61035;BME280;46916;40.564;-7.958;2023-11-19T05:00:59;98007.44;;;14.59;100.00
61035;BME280;46916;40.564;-7.958;2023-11-19T05:02:59;98009.38;;;14.57;100.00
61035;BME280;46916;40.564;-7.958;2023-11-19T05:05:01;98007.59;;;14.57;100.00
61035;BME280;46916;40.564;-7.958;2023-11-19T05:07:04;98005.91;;;14.56;100.00
61035;BME280;46916;40.564;-7.958;2023-11-19T05:09:04;98003.28;;;14.56;100.00
61035;BME280;46916;40.564;-7.958;2023-11-19T05:11:07;97996.34;;;14.55;100.00
61035;BME280;46916;40.564;-7.958;2023-11-19T05:13:08;98000.66;;;14.56;100.00
61035;BME280;46916;40.564;-7.958;2023-11-19T05:15:09;98002.88;;;14.51;100.00
61035;BME280;46916;40.564;-7.958;2023-11-19T05:17:09;98003.97;;;14.39;100.00
61035;BME280;46916;40.564;-7.958;2023-11-19T05:19:10;97998.97;;;14.36;100.00
61035;BME280;46916;40.564;-7.958;2023-11-19T05:21:10;97997.88;;;14.29;100.00
61035;BME280;46916;40.564;-7.958;2023-11-19T05:23:11;98001.88;;;14.23;100.00
61035;BME280;46916;40.564;-7.958;2023-11-19T05:25:11;97995.13;;;14.21;100.00
61035;BME280;46916;40.564;-7.958;2023-11-19T05:27:12;98002.72;;;14.24;100.00
61035;BME280;46916;40.564;-7.958;2023-11-19T05:29:13;97998.69;;;14.20;100.00
61035;BME280;46916;40.564;-7.958;2023-11-19T05:31:16;98003.41;;;14.16;100.00
61035;BME280;46916;40.564;-7.958;2023-11-19T05:33:17;98000.63;;;14.08;100.00
61035;BME280;46916;40.564;-7.958;2023-11-19T05:35:18;98009.25;;;14.00;100.00
61035;BME280;46916;40.564;-7.958;2023-11-19T05:37:18;97999.81;;;13.98;100.00
61035;BME280;46916;40.564;-7.958;2023-11-19T05:39:19;97998.81;;;13.99;100.00
61035;BME280;46916;40.564;-7.958;2023-11-19T05:41:20;98001.19;;;13.92;100.00
61035;BME280;46916;40.564;-7.958;2023-11-19T05:43:21;98004.09;;;13.89;100.00
61035;BME280;46916;40.564;-7.958;2023-11-19T05:45:21;97997.84;;;13.90;100.00
61035;BME280;46916;40.564;-7.958;2023-11-19T05:47:22;97995.22;;;13.90;100.00
61035;BME280;46916;40.564;-7.958;2023-11-19T05:49:22;97996.19;;;13.89;100.00
61035;BME280;46916;40.564;-7.958;2023-11-19T05:51:23;97995.06;;;13.92;100.00
61035;BME280;46916;40.564;-7.958;2023-11-19T05:53:25;97987.72;;;13.95;100.00
61035;BME280;46916;40.564;-7.958;2023-11-19T05:55:25;97985.50;;;13.81;100.00
61035;BME280;46916;40.564;-7.958;2023-11-19T05:57:28;97988.81;;;13.73;100.00
61035;BME280;46916;40.564;-7.958;2023-11-19T05:59:29;97986.19;;;13.63;100.00
61035;BME280;46916;40.564;-7.958;2023-11-19T06:01:30;97996.81;;;13.52;100.00
61035;BME280;46916;40.564;-7.958;2023-11-19T06:03:31;97994.03;;;13.44;100.00
61035;BME280;46916;40.564;-7.958;2023-11-19T06:05:32;97998.44;;;13.44;100.00
61035;BME280;46916;40.564;-7.958;2023-11-19T06:07:33;98004.13;;;13.49;100.00
61035;BME280;46916;40.564;-7.958;2023-11-19T06:09:33;97997.16;;;13.38;100.00
61035;BME280;46916;40.564;-7.958;2023-11-19T06:11:34;98003.66;;;13.34;100.00
61035;BME280;46916;40.564;-7.958;2023-11-19T06:13:36;97998.22;;;13.26;100.00
61035;BME280;46916;40.564;-7.958;2023-11-19T06:15:36;97991.88;;;13.28;100.00
61035;BME280;46916;40.564;-7.958;2023-11-19T06:17:37;97991.16;;;13.26;100.00
61035;BME280;46916;40.564;-7.958;2023-11-19T06:19:38;97990.09;;;13.29;100.00
61035;BME280;46916;40.564;-7.958;2023-11-19T06:21:39;97984.00;;;13.28;100.00
61035;BME280;46916;40.564;-7.958;2023-11-19T06:23:39;97983.75;;;13.31;100.00
61035;BME280;46916;40.564;-7.958;2023-11-19T06:25:40;97973.63;;;13.27;100.00
61035;BME280;46916;40.564;-7.958;2023-11-19T06:27:42;97978.72;;;13.28;100.00
61035;BME280;46916;40.564;-7.958;2023-11-19T06:29:42;97977.91;;;13.28;100.00
61035;BME280;46916;40.564;-7.958;2023-11-19T06:31:43;97983.59;;;13.33;100.00
61035;BME280;46916;40.564;-7.958;2023-11-19T06:33:43;97972.66;;;13.37;100.00
61035;BME280;46916;40.564;-7.958;2023-11-19T06:35:44;97978.50;;;13.51;100.00
61035;BME280;46916;40.564;-7.958;2023-11-19T06:37:45;97978.81;;;13.57;100.00
61035;BME280;46916;40.564;-7.958;2023-11-19T06:39:45;97982.69;;;13.63;100.00
61035;BME280;46916;40.564;-7.958;2023-11-19T06:41:46;97982.16;;;13.69;100.00
61035;BME280;46916;40.564;-7.958;2023-11-19T06:43:47;97977.47;;;13.73;100.00
61035;BME280;46916;40.564;-7.958;2023-11-19T06:45:48;97973.19;;;13.72;100.00
61035;BME280;46916;40.564;-7.958;2023-11-19T06:47:49;97975.50;;;13.75;100.00
61035;BME280;46916;40.564;-7.958;2023-11-19T06:49:49;97969.00;;;13.79;100.00
61035;BME280;46916;40.564;-7.958;2023-11-19T06:51:50;97976.50;;;13.83;100.00
61035;BME280;46916;40.564;-7.958;2023-11-19T06:53:51;97970.97;;;13.86;100.00
61035;BME280;46916;40.564;-7.958;2023-11-19T06:55:51;97971.66;;;13.88;100.00
61035;BME280;46916;40.564;-7.958;2023-11-19T06:57:52;97965.56;;;13.88;100.00
61035;BME280;46916;40.564;-7.958;2023-11-19T06:59:52;97970.13;;;13.86;100.00
61035;BME280;46916;40.564;-7.958;2023-11-19T07:01:53;97967.75;;;13.83;100.00
61035;BME280;46916;40.564;-7.958;2023-11-19T07:03:53;97965.97;;;13.83;100.00
61035;BME280;46916;40.564;-7.958;2023-11-19T07:05:54;97975.41;;;13.86;100.00
61035;BME280;46916;40.564;-7.958;2023-11-19T07:07:56;97969.31;;;13.85;100.00
61035;BME280;46916;40.564;-7.958;2023-11-19T07:09:56;97962.38;;;13.84;100.00
61035;BME280;46916;40.564;-7.958;2023-11-19T07:11:57;97970.69;;;13.80;100.00
61035;BME280;46916;40.564;-7.958;2023-11-19T07:13:57;97968.19;;;13.78;100.00
61035;BME280;46916;40.564;-7.958;2023-11-19T07:15:58;97969.72;;;13.81;100.00
61035;BME280;46916;40.564;-7.958;2023-11-19T07:17:59;97974.00;;;13.82;100.00
61035;BME280;46916;40.564;-7.958;2023-11-19T07:20:00;97989.25;;;13.78;100.00
61035;BME280;46916;40.564;-7.958;2023-11-19T07:22:01;97977.19;;;13.76;100.00
61035;BME280;46916;40.564;-7.958;2023-11-19T07:24:02;97976.50;;;13.74;100.00
61035;BME280;46916;40.564;-7.958;2023-11-19T07:26:06;97980.78;;;13.75;100.00
61035;BME280;46916;40.564;-7.958;2023-11-19T07:28:08;97977.88;;;13.78;100.00
61035;BME280;46916;40.564;-7.958;2023-11-19T07:30:10;97978.72;;;13.78;100.00
61035;BME280;46916;40.564;-7.958;2023-11-19T07:32:11;97973.44;;;13.69;100.00
61035;BME280;46916;40.564;-7.958;2023-11-19T07:34:12;97979.22;;;13.62;100.00
61035;BME280;46916;40.564;-7.958;2023-11-19T07:36:14;97979.22;;;13.62;100.00
61035;BME280;46916;40.564;-7.958;2023-11-19T07:38:14;97975.34;;;13.57;100.00
61035;BME280;46916;40.564;-7.958;2023-11-19T07:40:15;97977.00;;;13.58;100.00
61035;BME280;46916;40.564;-7.958;2023-11-19T07:42:16;97981.31;;;13.59;100.00
61035;BME280;46916;40.564;-7.958;2023-11-19T07:44:16;97982.00;;;13.61;100.00
61035;BME280;46916;40.564;-7.958;2023-11-19T07:46:17;97981.19;;;13.60;100.00
61035;BME280;46916;40.564;-7.958;2023-11-19T07:48:19;97977.97;;;13.57;100.00
61035;BME280;46916;40.564;-7.958;2023-11-19T07:50:23;97970.50;;;13.52;100.00
61035;BME280;46916;40.564;-7.958;2023-11-19T07:52:25;97975.91;;;13.60;100.00
61035;BME280;46916;40.564;-7.958;2023-11-19T07:54:26;97985.06;;;13.66;100.00
61035;BME280;46916;40.564;-7.958;2023-11-19T07:56:26;97985.88;;;13.67;100.00
61035;BME280;46916;40.564;-7.958;2023-11-19T07:58:27;97982.31;;;13.68;100.00
61035;BME280;46916;40.564;-7.958;2023-11-19T08:00:28;97976.91;;;13.69;100.00
61035;BME280;46916;40.564;-7.958;2023-11-19T08:02:29;97977.72;;;13.70;100.00
61035;BME280;46916;40.564;-7.958;2023-11-19T08:04:29;97973.44;;;13.69;100.00
61035;BME280;46916;40.564;-7.958;2023-11-19T08:06:30;97977.06;;;13.68;100.00
61035;BME280;46916;40.564;-7.958;2023-11-19T08:08:30;97979.22;;;13.62;100.00
61035;BME280;46916;40.564;-7.958;2023-11-19T08:10:33;97978.66;;;13.59;100.00
61035;BME280;46916;40.564;-7.958;2023-11-19T08:12:33;97984.50;;;13.62;100.00
61035;BME280;46916;40.564;-7.958;2023-11-19T08:14:35;97983.41;;;13.65;100.00
61035;BME280;46916;40.564;-7.958;2023-11-19T08:16:39;97984.94;;;13.68;100.00
61035;BME280;46916;40.564;-7.958;2023-11-19T08:18:42;97980.34;;;13.60;100.00
61035;BME280;46916;40.564;-7.958;2023-11-19T08:20:44;97987.41;;;13.59;100.00
61035;BME280;46916;40.564;-7.958;2023-11-19T08:22:45;97988.09;;;13.61;100.00
61035;BME280;46916;40.564;-7.958;2023-11-19T08:24:45;97989.66;;;13.64;100.00
61035;BME280;46916;40.564;-7.958;2023-11-19T08:26:46;97986.88;;;13.66;100.00
61035;BME280;46916;40.564;-7.958;2023-11-19T08:28:47;97996.41;;;13.67;100.00
61035;BME280;46916;40.564;-7.958;2023-11-19T08:30:48;97998.94;;;13.68;100.00
61035;BME280;46916;40.564;-7.958;2023-11-19T08:32:48;97993.78;;;13.67;100.00
61035;BME280;46916;40.564;-7.958;2023-11-19T08:34:49;97992.38;;;13.62;100.00
61035;BME280;46916;40.564;-7.958;2023-11-19T08:36:50;97992.81;;;13.58;100.00
61035;BME280;46916;40.564;-7.958;2023-11-19T08:38:54;98000.28;;;13.53;100.00
61035;BME280;46916;40.564;-7.958;2023-11-19T08:40:54;97999.56;;;13.51;100.00
61035;BME280;46916;40.564;-7.958;2023-11-19T08:43:00;98001.66;;;13.47;100.00
61035;BME280;46916;40.564;-7.958;2023-11-19T08:45:01;98002.75;;;13.45;100.00
61035;BME280;46916;40.564;-7.958;2023-11-19T08:47:01;98001.66;;;13.47;100.00
61035;BME280;46916;40.564;-7.958;2023-11-19T08:49:02;98004.66;;;13.43;100.00
61035;BME280;46916;40.564;-7.958;2023-11-19T08:51:03;98007.28;;;13.43;100.00
61035;BME280;46916;40.564;-7.958;2023-11-19T08:53:04;98005.53;;;13.43;100.00
61035;BME280;46916;40.564;-7.958;2023-11-19T08:55:07;98007.19;;;13.44;100.00
61035;BME280;46916;40.564;-7.958;2023-11-19T08:57:07;98002.31;;;13.40;100.00
61035;BME280;46916;40.564;-7.958;2023-11-19T08:59:09;98004.38;;;13.36;100.00
61035;BME280;46916;40.564;-7.958;2023-11-19T09:01:09;98006.28;;;13.34;100.00
61035;BME280;46916;40.564;-7.958;2023-11-19T09:03:10;98003.38;;;13.27;100.00
61035;BME280;46916;40.564;-7.958;2023-11-19T09:05:11;97999.06;;;13.26;100.00
61035;BME280;46916;40.564;-7.958;2023-11-19T09:07:13;98006.41;;;13.23;100.00
61035;BME280;46916;40.564;-7.958;2023-11-19T09:09:13;98001.38;;;13.20;100.00
61035;BME280;46916;40.564;-7.958;2023-11-19T09:11:14;98005.81;;;13.19;100.00
61035;BME280;46916;40.564;-7.958;2023-11-19T09:13:15;98008.28;;;13.21;100.00
61035;BME280;46916;40.564;-7.958;2023-11-19T09:15:16;98007.31;;;13.22;100.00
61035;BME280;46916;40.564;-7.958;2023-11-19T09:17:17;98003.03;;;13.21;100.00
61035;BME280;46916;40.564;-7.958;2023-11-19T09:19:18;98006.13;;;13.26;100.00
61035;BME280;46916;40.564;-7.958;2023-11-19T09:21:19;97997.56;;;13.24;100.00
61035;BME280;46916;40.564;-7.958;2023-11-19T09:23:19;97996.06;;;13.31;100.00
61035;BME280;46916;40.564;-7.958;2023-11-19T09:25:20;98001.75;;;13.36;100.00
61035;BME280;46916;40.564;-7.958;2023-11-19T09:27:21;98005.72;;;13.30;100.00
61035;BME280;46916;40.564;-7.958;2023-11-19T09:29:21;98016.53;;;13.27;100.00
61035;BME280;46916;40.564;-7.958;2023-11-19T09:31:22;98007.41;;;13.31;100.00
61035;BME280;46916;40.564;-7.958;2023-11-19T09:33:23;98007.13;;;13.34;100.00
61035;BME280;46916;40.564;-7.958;2023-11-19T09:35:24;98005.34;;;13.35;100.00
61035;BME280;46916;40.564;-7.958;2023-11-19T09:37:24;98003.41;;;13.37;100.00
61035;BME280;46916;40.564;-7.958;2023-11-19T09:39:25;97999.13;;;13.46;100.00
61035;BME280;46916;40.564;-7.958;2023-11-19T09:41:26;97995.00;;;13.53;100.00
61035;BME280;46916;40.564;-7.958;2023-11-19T09:43:28;97996.25;;;13.58;100.00
61035;BME280;46916;40.564;-7.958;2023-11-19T09:45:32;97994.75;;;13.66;100.00
61035;BME280;46916;40.564;-7.958;2023-11-19T09:47:37;97993.25;;;13.73;100.00
61035;BME280;46916;40.564;-7.958;2023-11-19T09:49:38;97996.72;;;13.73;100.00
61035;BME280;46916;40.564;-7.958;2023-11-19T09:51:39;97996.31;;;13.78;100.00
61035;BME280;46916;40.564;-7.958;2023-11-19T09:53:39;97991.19;;;13.86;100.00
61035;BME280;46916;40.564;-7.958;2023-11-19T09:55:40;97993.72;;;13.97;100.00
61035;BME280;46916;40.564;-7.958;2023-11-19T09:57:43;97987.75;;;14.05;100.00
61035;BME280;46916;40.564;-7.958;2023-11-19T09:59:45;97998.41;;;14.03;100.00
61035;BME280;46916;40.564;-7.958;2023-11-19T10:01:47;97984.97;;;13.97;100.00
61035;BME280;46916;40.564;-7.958;2023-11-19T10:03:48;97990.09;;;13.98;100.00
61035;BME280;46916;40.564;-7.958;2023-11-19T10:05:50;97983.59;;;14.02;100.00
61035;BME280;46916;40.564;-7.958;2023-11-19T10:07:51;97989.25;;;14.07;100.00
61035;BME280;46916;40.564;-7.958;2023-11-19T10:09:51;97987.34;;;14.09;100.00
61035;BME280;46916;40.564;-7.958;2023-11-19T10:11:52;97983.56;;;14.12;100.00
61035;BME280;46916;40.564;-7.958;2023-11-19T10:13:53;97987.75;;;14.15;100.00
61035;BME280;46916;40.564;-7.958;2023-11-19T10:15:55;97985.25;;;14.13;100.00
61035;BME280;46916;40.564;-7.958;2023-11-19T10:17:57;97985.94;;;14.15;100.00
61035;BME280;46916;40.564;-7.958;2023-11-19T10:19:58;97989.81;;;14.11;100.00
61035;BME280;46916;40.564;-7.958;2023-11-19T10:22:06;97986.06;;;14.04;100.00
61035;BME280;46916;40.564;-7.958;2023-11-19T10:24:06;97993.44;;;14.10;100.00
61035;BME280;46916;40.564;-7.958;2023-11-19T10:26:07;97980.81;;;14.13;100.00